sensor_id;sensor_type;location;lat;lon;timestamp;pressure;altitude;pressure_sealevel;temperature
66170;BMP280;66757;44.024;20.456;2023-12-04T00:01:01;98823.31;;;2.66
66170;BMP280;66757;44.024;20.456;2023-12-04T00:03:27;98816.84;;;2.39
66170;BMP280;66757;44.024;20.456;2023-12-04T00:05:52;98818.28;;;2.23
66170;BMP280;66757;44.024;20.456;2023-12-04T00:08:18;98817.53;;;2.94
66170;BMP280;66757;44.024;20.456;2023-12-04T00:10:43;98808.38;;;2.97
66170;BMP280;66757;44.024;20.456;2023-12-04T00:13:09;98815.50;;;3.08
66170;BMP280;66757;44.024;20.456;2023-12-04T00:15:34;98824.19;;;3.20
66170;BMP280;66757;44.024;20.456;2023-12-04T00:18:00;98838.19;;;3.26
66170;BMP280;66757;44.024;20.456;2023-12-04T00:20:25;98837.88;;;3.22
66170;BMP280;66757;44.024;20.456;2023-12-04T00:22:51;98831.16;;;2.96
66170;BMP280;66757;44.024;20.456;2023-12-04T00:25:16;98831.19;;;2.85
66170;BMP280;66757;44.024;20.456;2023-12-04T00:27:42;98839.78;;;2.73
66170;BMP280;66757;44.024;20.456;2023-12-04T00:30:08;98845.00;;;2.73
66170;BMP280;66757;44.024;20.456;2023-12-04T00:32:33;98843.63;;;3.01
66170;BMP280;66757;44.024;20.456;2023-12-04T00:34:59;98850.25;;;3.03
66170;BMP280;66757;44.024;20.456;2023-12-04T00:37:26;98841.81;;;3.01
66170;BMP280;66757;44.024;20.456;2023-12-04T00:39:52;98843.72;;;2.94
66170;BMP280;66757;44.024;20.456;2023-12-04T00:42:17;98857.75;;;1.97
66170;BMP280;66757;44.024;20.456;2023-12-04T00:44:43;98852.31;;;1.48
66170;BMP280;66757;44.024;20.456;2023-12-04T00:47:09;98859.00;;;1.19
66170;BMP280;66757;44.024;20.456;2023-12-04T00:49:36;98855.22;;;1.40
66170;BMP280;66757;44.024;20.456;2023-12-04T00:52:01;98863.59;;;1.49
66170;BMP280;66757;44.024;20.456;2023-12-04T00:54:27;98862.78;;;1.24
66170;BMP280;66757;44.024;20.456;2023-12-04T00:56:52;98857.09;;;0.95
66170;BMP280;66757;44.024;20.456;2023-12-04T00:59:18;98853.75;;;0.81
66170;BMP280;66757;44.024;20.456;2023-12-04T01:01:43;98853.44;;;1.03
66170;BMP280;66757;44.024;20.456;2023-12-04T01:04:09;98861.00;;;1.49
66170;BMP280;66757;44.024;20.456;2023-12-04T01:06:35;98871.84;;;1.46
66170;BMP280;66757;44.024;20.456;2023-12-04T01:09:00;98861.72;;;1.56
66170;BMP280;66757;44.024;20.456;2023-12-04T01:11:26;98864.22;;;1.94
66170;BMP280;66757;44.024;20.456;2023-12-04T01:13:51;98861.91;;;2.04
66170;BMP280;66757;44.024;20.456;2023-12-04T01:16:17;98867.44;;;1.22
66170;BMP280;66757;44.024;20.456;2023-12-04T01:18:43;98859.28;;;1.61
66170;BMP280;66757;44.024;20.456;2023-12-04T01:21:09;98856.16;;;1.96
66170;BMP280;66757;44.024;20.456;2023-12-04T01:23:37;98857.13;;;2.20
66170;BMP280;66757;44.024;20.456;2023-12-04T01:26:04;98862.34;;;2.01
66170;BMP280;66757;44.024;20.456;2023-12-04T01:28:29;98861.84;;;1.68
66170;BMP280;66757;44.024;20.456;2023-12-04T01:30:55;98857.97;;;1.45
66170;BMP280;66757;44.024;20.456;2023-12-04T01:33:20;98853.56;;;1.96
66170;BMP280;66757;44.024;20.456;2023-12-04T01:35:46;98863.22;;;1.95
66170;BMP280;66757;44.024;20.456;2023-12-04T01:38:11;98868.75;;;2.05
66170;BMP280;66757;44.024;20.456;2023-12-04T01:40:37;98856.34;;;2.19
66170;BMP280;66757;44.024;20.456;2023-12-04T01:43:03;98860.38;;;2.33
66170;BMP280;66757;44.024;20.456;2023-12-04T01:45:30;98865.75;;;2.02
66170;BMP280;66757;44.024;20.456;2023-12-04T01:47:57;98856.53;;;0.93
66170;BMP280;66757;44.024;20.456;2023-12-04T01:50:23;98859.84;;;1.88
66170;BMP280;66757;44.024;20.456;2023-12-04T01:52:51;98850.94;;;2.14
66170;BMP280;66757;44.024;20.456;2023-12-04T01:55:17;98860.03;;;1.68
66170;BMP280;66757;44.024;20.456;2023-12-04T01:57:43;98862.56;;;1.25
66170;BMP280;66757;44.024;20.456;2023-12-04T02:00:10;98854.56;;;1.45
66170;BMP280;66757;44.024;20.456;2023-12-04T02:02:40;98857.53;;;1.55
66170;BMP280;66757;44.024;20.456;2023-12-04T02:05:08;98852.06;;;1.32
66170;BMP280;66757;44.024;20.456;2023-12-04T02:07:34;98854.66;;;1.00
66170;BMP280;66757;44.024;20.456;2023-12-04T02:09:59;98851.78;;;1.15
66170;BMP280;66757;44.024;20.456;2023-12-04T02:12:25;98856.09;;;0.96
66170;BMP280;66757;44.024;20.456;2023-12-04T02:14:52;98853.53;;;0.89
66170;BMP280;66757;44.024;20.456;2023-12-04T02:17:18;98846.19;;;1.61
66170;BMP280;66757;44.024;20.456;2023-12-04T02:19:45;98849.25;;;1.58
66170;BMP280;66757;44.024;20.456;2023-12-04T02:22:10;98853.22;;;1.11
66170;BMP280;66757;44.024;20.456;2023-12-04T02:24:36;98851.31;;;1.25
66170;BMP280;66757;44.024;20.456;2023-12-04T02:29:46;98845.19;;;1.37
66170;BMP280;66757;44.024;20.456;2023-12-04T02:32:15;98854.41;;;1.40
66170;BMP280;66757;44.024;20.456;2023-12-04T02:34:43;98854.53;;;1.27
66170;BMP280;66757;44.024;20.456;2023-12-04T02:37:10;98847.63;;;1.07
66170;BMP280;66757;44.024;20.456;2023-12-04T02:39:36;98848.53;;;1.44
66170;BMP280;66757;44.024;20.456;2023-12-04T02:42:03;98848.78;;;0.67
66170;BMP280;66757;44.024;20.456;2023-12-04T02:44:29;98846.66;;;0.44
66170;BMP280;66757;44.024;20.456;2023-12-04T02:46:55;98848.69;;;0.86
66170;BMP280;66757;44.024;20.456;2023-12-04T02:49:22;98853.78;;;1.19
66170;BMP280;66757;44.024;20.456;2023-12-04T02:51:47;98856.38;;;1.19
66170;BMP280;66757;44.024;20.456;2023-12-04T02:54:13;98860.56;;;1.27
66170;BMP280;66757;44.024;20.456;2023-12-04T02:56:38;98858.66;;;1.09
66170;BMP280;66757;44.024;20.456;2023-12-04T02:59:04;98862.81;;;0.79
66170;BMP280;66757;44.024;20.456;2023-12-04T03:01:29;98866.00;;;0.81
66170;BMP280;66757;44.024;20.456;2023-12-04T03:03:55;98863.50;;;0.99
66170;BMP280;66757;44.024;20.456;2023-12-04T03:06:20;98858.88;;;1.01
66170;BMP280;66757;44.024;20.456;2023-12-04T03:08:46;98862.47;;;1.07
66170;BMP280;66757;44.024;20.456;2023-12-04T03:11:12;98866.09;;;1.06
66170;BMP280;66757;44.024;20.456;2023-12-04T03:13:38;98870.69;;;1.10
66170;BMP280;66757;44.024;20.456;2023-12-04T03:16:04;98870.72;;;1.04
66170;BMP280;66757;44.024;20.456;2023-12-04T03:18:30;98866.91;;;1.00
66170;BMP280;66757;44.024;20.456;2023-12-04T03:20:55;98860.91;;;0.99
66170;BMP280;66757;44.024;20.456;2023-12-04T03:23:22;98870.00;;;0.90
66170;BMP280;66757;44.024;20.456;2023-12-04T03:25:47;98875.00;;;0.92
66170;BMP280;66757;44.024;20.456;2023-12-04T03:28:13;98877.94;;;0.57
66170;BMP280;66757;44.024;20.456;2023-12-04T03:30:41;98878.28;;;0.74
66170;BMP280;66757;44.024;20.456;2023-12-04T03:33:10;98877.88;;;0.77
66170;BMP280;66757;44.024;20.456;2023-12-04T03:35:36;98885.47;;;0.85
66170;BMP280;66757;44.024;20.456;2023-12-04T03:38:01;98882.91;;;0.78
66170;BMP280;66757;44.024;20.456;2023-12-04T03:40:27;98877.88;;;0.77
66170;BMP280;66757;44.024;20.456;2023-12-04T03:42:52;98875.66;;;0.80
66170;BMP280;66757;44.024;20.456;2023-12-04T03:45:18;98876.50;;;0.68
66170;BMP280;66757;44.024;20.456;2023-12-04T03:47:44;98878.66;;;0.26
66170;BMP280;66757;44.024;20.456;2023-12-04T03:50:10;98881.06;;;0.21
66170;BMP280;66757;44.024;20.456;2023-12-04T03:52:35;98886.56;;;0.57
66170;BMP280;66757;44.024;20.456;2023-12-04T03:55:01;98882.16;;;0.58
66170;BMP280;66757;44.024;20.456;2023-12-04T03:57:26;98882.56;;;0.62
66170;BMP280;66757;44.024;20.456;2023-12-04T03:59:52;98878.13;;;0.55
66170;BMP280;66757;44.024;20.456;2023-12-04T04:02:18;98880.25;;;-0.33
66170;BMP280;66757;44.024;20.456;2023-12-04T04:04:43;98887.56;;;-0.96
66170;BMP280;66757;44.024;20.456;2023-12-04T04:07:09;98874.63;;;-0.56
66170;BMP280;66757;44.024;20.456;2023-12-04T04:09:34;98878.38;;;-0.85
66170;BMP280;66757;44.024;20.456;2023-12-04T04:12:00;98885.47;;;-0.59
66170;BMP280;66757;44.024;20.456;2023-12-04T04:14:25;98876.31;;;-0.28
66170;BMP280;66757;44.024;20.456;2023-12-04T04:16:51;98888.72;;;0.03
66170;BMP280;66757;44.024;20.456;2023-12-04T04:19:16;98884.88;;;0.12
66170;BMP280;66757;44.024;20.456;2023-12-04T04:21:42;98887.44;;;-0.68
66170;BMP280;66757;44.024;20.456;2023-12-04T04:24:07;98891.16;;;-0.90
66170;BMP280;66757;44.024;20.456;2023-12-04T04:26:34;98895.16;;;-1.01
66170;BMP280;66757;44.024;20.456;2023-12-04T04:28:59;98904.88;;;-0.62
66170;BMP280;66757;44.024;20.456;2023-12-04T04:31:25;98893.91;;;-0.37
66170;BMP280;66757;44.024;20.456;2023-12-04T04:33:50;98903.09;;;-0.48
66170;BMP280;66757;44.024;20.456;2023-12-04T04:36:16;98903.50;;;-0.57
66170;BMP280;66757;44.024;20.456;2023-12-04T04:38:41;98899.50;;;-0.34
66170;BMP280;66757;44.024;20.456;2023-12-04T04:41:07;98913.78;;;-0.16
66170;BMP280;66757;44.024;20.456;2023-12-04T04:43:37;98916.16;;;-0.41
66170;BMP280;66757;44.024;20.456;2023-12-04T04:46:03;98918.75;;;-0.41
66170;BMP280;66757;44.024;20.456;2023-12-04T04:48:30;98914.78;;;-0.24
66170;BMP280;66757;44.024;20.456;2023-12-04T04:50:55;98916.81;;;-0.13
66170;BMP280;66757;44.024;20.456;2023-12-04T04:53:21;98917.38;;;-0.17
66170;BMP280;66757;44.024;20.456;2023-12-04T04:55:46;98921.78;;;-0.18
66170;BMP280;66757;44.024;20.456;2023-12-04T04:58:12;98925.81;;;-0.15
66170;BMP280;66757;44.024;20.456;2023-12-04T05:00:37;98912.78;;;-0.15
66170;BMP280;66757;44.024;20.456;2023-12-04T05:03:03;98909.56;;;-0.24
66170;BMP280;66757;44.024;20.456;2023-12-04T05:05:28;98915.75;;;-0.32
66170;BMP280;66757;44.024;20.456;2023-12-04T05:07:54;98917.81;;;-0.27
66170;BMP280;66757;44.024;20.456;2023-12-04T05:10:19;98908.75;;;-0.31
66170;BMP280;66757;44.024;20.456;2023-12-04T05:12:45;98925.16;;;-0.37
66170;BMP280;66757;44.024;20.456;2023-12-04T05:15:10;98921.13;;;-0.53
66170;BMP280;66757;44.024;20.456;2023-12-04T05:17:36;98919.09;;;-0.64
66170;BMP280;66757;44.024;20.456;2023-12-04T05:20:01;98917.28;;;-0.70
66170;BMP280;66757;44.024;20.456;2023-12-04T05:22:29;98921.09;;;-0.66
66170;BMP280;66757;44.024;20.456;2023-12-04T05:24:54;98913.63;;;-0.82
66170;BMP280;66757;44.024;20.456;2023-12-04T05:27:20;98905.47;;;-0.73
66170;BMP280;66757;44.024;20.456;2023-12-04T05:29:45;98913.03;;;-0.78
66170;BMP280;66757;44.024;20.456;2023-12-04T05:32:12;98903.06;;;-0.68
66170;BMP280;66757;44.024;20.456;2023-12-04T05:34:39;98909.06;;;-0.67
66170;BMP280;66757;44.024;20.456;2023-12-04T05:37:04;98907.44;;;-0.75
66170;BMP280;66757;44.024;20.456;2023-12-04T05:39:30;98910.25;;;-0.76
66170;BMP280;66757;44.024;20.456;2023-12-04T05:41:55;98909.03;;;-0.87
66170;BMP280;66757;44.024;20.456;2023-12-04T05:44:21;98915.88;;;-0.73
66170;BMP280;66757;44.024;20.456;2023-12-04T05:46:46;98912.44;;;-0.80
66170;BMP280;66757;44.024;20.456;2023-12-04T05:49:12;98908.19;;;-0.94
66170;BMP280;66757;44.024;20.456;2023-12-04T05:51:37;98902.38;;;-1.03
66170;BMP280;66757;44.024;20.456;2023-12-04T05:54:03;98906.19;;;-0.99
66170;BMP280;66757;44.024;20.456;2023-12-04T05:56:28;98911.75;;;-1.08
66170;BMP280;66757;44.024;20.456;2023-12-04T05:58:55;98908.06;;;-1.21
66170;BMP280;66757;44.024;20.456;2023-12-04T06:01:21;98913.53;;;-1.15
66170;BMP280;66757;44.024;20.456;2023-12-04T06:03:46;98915.38;;;-1.03
66170;BMP280;66757;44.024;20.456;2023-12-04T06:06:12;98915.03;;;-0.86
66170;BMP280;66757;44.024;20.456;2023-12-04T06:08:37;98924.09;;;-1.24
66170;BMP280;66757;44.024;20.456;2023-12-04T06:11:03;98927.69;;;-1.25
66170;BMP280;66757;44.024;20.456;2023-12-04T06:13:28;98920.34;;;-1.14
66170;BMP280;66757;44.024;20.456;2023-12-04T06:15:54;98917.31;;;-1.18
66170;BMP280;66757;44.024;20.456;2023-12-04T06:18:19;98912.06;;;-1.25
66170;BMP280;66757;44.024;20.456;2023-12-04T06:20:48;98916.66;;;-1.61
66170;BMP280;66757;44.024;20.456;2023-12-04T06:23:14;98917.09;;;-1.23
66170;BMP280;66757;44.024;20.456;2023-12-04T06:25:40;98912.84;;;-1.31
66170;BMP280;66757;44.024;20.456;2023-12-04T06:28:06;98912.78;;;-1.03
66170;BMP280;66757;44.024;20.456;2023-12-04T06:30:33;98917.41;;;-0.92
66170;BMP280;66757;44.024;20.456;2023-12-04T06:32:59;98919.78;;;-0.97
66170;BMP280;66757;44.024;20.456;2023-12-04T06:35:25;98923.41;;;-1.67
66170;BMP280;66757;44.024;20.456;2023-12-04T06:37:53;98924.22;;;-1.66
66170;BMP280;66757;44.024;20.456;2023-12-04T06:40:20;98920.19;;;-1.34
66170;BMP280;66757;44.024;20.456;2023-12-04T06:42:46;98919.06;;;-1.25
66170;BMP280;66757;44.024;20.456;2023-12-04T06:45:12;98914.94;;;-1.06
66170;BMP280;66757;44.024;20.456;2023-12-04T06:47:40;98918.25;;;-0.78
66170;BMP280;66757;44.024;20.456;2023-12-04T06:50:06;98921.50;;;-0.63
66170;BMP280;66757;44.024;20.456;2023-12-04T06:52:32;98918.53;;;-0.60
66170;BMP280;66757;44.024;20.456;2023-12-04T06:54:57;98922.91;;;-0.73
66170;BMP280;66757;44.024;20.456;2023-12-04T06:57:23;98921.34;;;-1.15
66170;BMP280;66757;44.024;20.456;2023-12-04T06:59:49;98917.84;;;-0.81
66170;BMP280;66757;44.024;20.456;2023-12-04T07:02:14;98919.28;;;-0.66
66170;BMP280;66757;44.024;20.456;2023-12-04T07:04:41;98922.91;;;-0.67
66170;BMP280;66757;44.024;20.456;2023-12-04T07:07:06;98921.28;;;-0.68
66170;BMP280;66757;44.024;20.456;2023-12-04T07:09:32;98921.13;;;-0.46
66170;BMP280;66757;44.024;20.456;2023-12-04T07:11:59;98913.09;;;-0.65
66170;BMP280;66757;44.024;20.456;2023-12-04T07:14:24;98911.06;;;-0.63
66170;BMP280;66757;44.024;20.456;2023-12-04T07:16:50;98908.03;;;-0.86
66170;BMP280;66757;44.024;20.456;2023-12-04T07:19:15;98906.84;;;-0.77
66170;BMP280;66757;44.024;20.456;2023-12-04T07:21:42;98911.31;;;-0.51
66170;BMP280;66757;44.024;20.456;2023-12-04T07:24:08;98908.66;;;-0.71
66170;BMP280;66757;44.024;20.456;2023-12-04T07:26:34;98905.28;;;-0.58
66170;BMP280;66757;44.024;20.456;2023-12-04T07:29:00;98903.50;;;-0.38
66170;BMP280;66757;44.024;20.456;2023-12-04T07:31:26;98897.91;;;-0.41
66170;BMP280;66757;44.024;20.456;2023-12-04T07:33:55;98909.13;;;-0.34
66170;BMP280;66757;44.024;20.456;2023-12-04T07:36:21;98904.16;;;-0.16
66170;BMP280;66757;44.024;20.456;2023-12-04T07:38:47;98902.34;;;-0.15
66170;BMP280;66757;44.024;20.456;2023-12-04T07:41:13;98895.53;;;-0.03
66170;BMP280;66757;44.024;20.456;2023-12-04T07:43:39;98897.34;;;-0.10
66170;BMP280;66757;44.024;20.456;2023-12-04T07:46:05;98899.16;;;0.16
66170;BMP280;66757;44.024;20.456;2023-12-04T07:48:30;98900.25;;;0.53
66170;BMP280;66757;44.024;20.456;2023-12-04T07:50:56;98902.19;;;0.71
66170;BMP280;66757;44.024;20.456;2023-12-04T07:53:22;98891.78;;;0.64
66170;BMP280;66757;44.024;20.456;2023-12-04T07:55:48;98895.16;;;0.71
66170;BMP280;66757;44.024;20.456;2023-12-04T07:58:17;98895.16;;;0.71
66170;BMP280;66757;44.024;20.456;2023-12-04T08:00:43;98896.22;;;0.44
66170;BMP280;66757;44.024;20.456;2023-12-04T08:03:09;98892.06;;;0.94
66170;BMP280;66757;44.024;20.456;2023-12-04T08:05:34;98900.13;;;0.86
66170;BMP280;66757;44.024;20.456;2023-12-04T08:08:00;98889.41;;;1.01
66170;BMP280;66757;44.024;20.456;2023-12-04T08:10:25;98887.34;;;1.16
66170;BMP280;66757;44.024;20.456;2023-12-04T08:12:51;98886.09;;;1.25
66170;BMP280;66757;44.024;20.456;2023-12-04T08:15:16;98884.53;;;1.49
66170;BMP280;66757;44.024;20.456;2023-12-04T08:17:42;98883.31;;;1.20
66170;BMP280;66757;44.024;20.456;2023-12-04T08:20:08;98877.47;;;1.74
66170;BMP280;66757;44.024;20.456;2023-12-04T08:22:41;98890.91;;;2.03
66170;BMP280;66757;44.024;20.456;2023-12-04T08:25:08;98895.00;;;1.92
66170;BMP280;66757;44.024;20.456;2023-12-04T08:27:35;98893.75;;;1.76
66170;BMP280;66757;44.024;20.456;2023-12-04T08:30:01;98901.03;;;2.18
66170;BMP280;66757;44.024;20.456;2023-12-04T08:32:28;98897.47;;;2.30
66170;BMP280;66757;44.024;20.456;2023-12-04T08:34:54;98896.03;;;2.53
66170;BMP280;66757;44.024;20.456;2023-12-04T08:37:19;98891.88;;;2.63
66170;BMP280;66757;44.024;20.456;2023-12-04T08:39:46;98889.72;;;2.60
66170;BMP280;66757;44.024;20.456;2023-12-04T08:42:12;98892.03;;;2.68
66170;BMP280;66757;44.024;20.456;2023-12-04T08:44:38;98879.94;;;2.86
66170;BMP280;66757;44.024;20.456;2023-12-04T08:47:05;98864.56;;;2.89
66170;BMP280;66757;44.024;20.456;2023-12-04T08:49:30;98872.44;;;3.01
66170;BMP280;66757;44.024;20.456;2023-12-04T08:51:57;98877.19;;;3.22
66170;BMP280;66757;44.024;20.456;2023-12-04T08:54:23;98876.19;;;2.93
66170;BMP280;66757;44.024;20.456;2023-12-04T08:56:49;98868.25;;;3.12
66170;BMP280;66757;44.024;20.456;2023-12-04T08:59:15;98878.66;;;3.18
66170;BMP280;66757;44.024;20.456;2023-12-04T09:01:42;98885.09;;;3.04
66170;BMP280;66757;44.024;20.456;2023-12-04T09:04:08;98878.25;;;3.03
66170;BMP280;66757;44.024;20.456;2023-12-04T09:06:34;98872.72;;;2.81
66170;BMP280;66757;44.024;20.456;2023-12-04T09:09:00;98869.25;;;2.99
66170;BMP280;66757;44.024;20.456;2023-12-04T09:11:25;98875.63;;;3.33
66170;BMP280;66757;44.024;20.456;2023-12-04T09:14:14;98871.53;;;3.84
66170;BMP280;66757;44.024;20.456;2023-12-04T09:16:41;98872.34;;;3.61
66170;BMP280;66757;44.024;20.456;2023-12-04T09:19:07;98870.19;;;4.05
66170;BMP280;66757;44.024;20.456;2023-12-04T09:21:32;98863.91;;;4.06
66170;BMP280;66757;44.024;20.456;2023-12-04T09:23:58;98869.50;;;3.62
66170;BMP280;66757;44.024;20.456;2023-12-04T09:26:24;98853.06;;;3.79
66170;BMP280;66757;44.024;20.456;2023-12-04T09:28:50;98850.78;;;3.71
66170;BMP280;66757;44.024;20.456;2023-12-04T09:31:15;98852.06;;;3.68
66170;BMP280;66757;44.024;20.456;2023-12-04T09:33:41;98860.25;;;3.83
66170;BMP280;66757;44.024;20.456;2023-12-04T09:36:07;98858.56;;;3.89
66170;BMP280;66757;44.024;20.456;2023-12-04T09:38:34;98845.69;;;3.87
66170;BMP280;66757;44.024;20.456;2023-12-04T09:41:01;98847.81;;;4.42
66170;BMP280;66757;44.024;20.456;2023-12-04T09:43:30;98837.78;;;4.51
66170;BMP280;66757;44.024;20.456;2023-12-04T09:45:57;98827.34;;;4.56
66170;BMP280;66757;44.024;20.456;2023-12-04T09:48:25;98818.31;;;4.80
66170;BMP280;66757;44.024;20.456;2023-12-04T09:50:51;98818.16;;;4.70
66170;BMP280;66757;44.024;20.456;2023-12-04T09:53:17;98819.59;;;4.78
66170;BMP280;66757;44.024;20.456;2023-12-04T09:55:48;98812.50;;;4.78
66170;BMP280;66757;44.024;20.456;2023-12-04T09:58:14;98814.81;;;4.75
66170;BMP280;66757;44.024;20.456;2023-12-04T10:00:42;98810.19;;;4.37
66170;BMP280;66757;44.024;20.456;2023-12-04T10:03:08;98809.16;;;4.38
66170;BMP280;66757;44.024;20.456;2023-12-04T10:05:33;98799.44;;;4.38
66170;BMP280;66757;44.024;20.456;2023-12-04T10:07:59;98798.25;;;4.46
66170;BMP280;66757;44.024;20.456;2023-12-04T10:10:24;98795.69;;;4.62
66170;BMP280;66757;44.024;20.456;2023-12-04T10:12:50;98790.59;;;4.56
66170;BMP280;66757;44.024;20.456;2023-12-04T10:15:17;98779.69;;;4.81
66170;BMP280;66757;44.024;20.456;2023-12-04T10:17:43;98775.63;;;4.73
66170;BMP280;66757;44.024;20.456;2023-12-04T10:22:57;98776.03;;;4.99
66170;BMP280;66757;44.024;20.456;2023-12-04T10:25:26;98775.78;;;5.17
66170;BMP280;66757;44.024;20.456;2023-12-04T10:27:54;98767.59;;;4.96
66170;BMP280;66757;44.024;20.456;2023-12-04T10:30:25;98771.78;;;5.31
66170;BMP280;66757;44.024;20.456;2023-12-04T10:32:59;98760.56;;;5.19
66170;BMP280;66757;44.024;20.456;2023-12-04T10:35:28;98762.31;;;5.69
66170;BMP280;66757;44.024;20.456;2023-12-04T10:37:55;98764.06;;;5.63
66170;BMP280;66757;44.024;20.456;2023-12-04T10:40:26;98766.34;;;5.54
66170;BMP280;66757;44.024;20.456;2023-12-04T10:45:37;98757.03;;;5.90
66170;BMP280;66757;44.024;20.456;2023-12-04T10:48:04;98745.78;;;6.22
66170;BMP280;66757;44.024;20.456;2023-12-04T10:50:37;98750.44;;;6.10
66170;BMP280;66757;44.024;20.456;2023-12-04T10:53:07;98752.06;;;6.16
66170;BMP280;66757;44.024;20.456;2023-12-04T10:55:33;98744.69;;;6.18
66170;BMP280;66757;44.024;20.456;2023-12-04T10:58:07;98734.28;;;6.60
66170;BMP280;66757;44.024;20.456;2023-12-04T11:00:34;98736.72;;;6.67
66170;BMP280;66757;44.024;20.456;2023-12-04T11:03:07;98733.66;;;6.48
66170;BMP280;66757;44.024;20.456;2023-12-04T11:05:37;98735.50;;;6.79
66170;BMP280;66757;44.024;20.456;2023-12-04T11:08:06;98731.47;;;7.09
66170;BMP280;66757;44.024;20.456;2023-12-04T11:10:33;98717.28;;;7.15
66170;BMP280;66757;44.024;20.456;2023-12-04T11:13:06;98717.47;;;7.03
66170;BMP280;66757;44.024;20.456;2023-12-04T11:15:40;98718.19;;;6.99
66170;BMP280;66757;44.024;20.456;2023-12-04T11:18:09;98714.63;;;7.82
66170;BMP280;66757;44.024;20.456;2023-12-04T11:20:42;98708.84;;;7.23
66170;BMP280;66757;44.024;20.456;2023-12-04T11:23:09;98707.06;;;7.29
66170;BMP280;66757;44.024;20.456;2023-12-04T11:25:35;98703.31;;;7.97
66170;BMP280;66757;44.024;20.456;2023-12-04T11:28:03;98704.34;;;8.01
66170;BMP280;66757;44.024;20.456;2023-12-04T11:30:29;98690.66;;;8.50
66170;BMP280;66757;44.024;20.456;2023-12-04T11:32:55;98690.53;;;9.06
66170;BMP280;66757;44.024;20.456;2023-12-04T11:35:25;98682.25;;;10.45
66170;BMP280;66757;44.024;20.456;2023-12-04T11:37:51;98678.19;;;11.43
66170;BMP280;66757;44.024;20.456;2023-12-04T11:40:18;98682.13;;;13.02
66170;BMP280;66757;44.024;20.456;2023-12-04T11:42:45;98672.91;;;14.03
66170;BMP280;66757;44.024;20.456;2023-12-04T11:45:18;98690.69;;;13.27
66170;BMP280;66757;44.024;20.456;2023-12-04T11:47:57;98671.56;;;14.14
66170;BMP280;66757;44.024;20.456;2023-12-04T11:50:26;98675.81;;;14.23
66170;BMP280;66757;44.024;20.456;2023-12-04T11:52:54;98674.63;;;14.78
66170;BMP280;66757;44.024;20.456;2023-12-04T11:55:23;98661.97;;;17.37
66170;BMP280;66757;44.024;20.456;2023-12-04T11:57:51;98652.44;;;17.07
66170;BMP280;66757;44.024;20.456;2023-12-04T12:03:09;98647.97;;;16.02
66170;BMP280;66757;44.024;20.456;2023-12-04T12:05:36;98653.28;;;14.95
66170;BMP280;66757;44.024;20.456;2023-12-04T12:08:05;98637.41;;;14.90
66170;BMP280;66757;44.024;20.456;2023-12-04T12:10:31;98633.75;;;15.72
66170;BMP280;66757;44.024;20.456;2023-12-04T12:12:57;98619.81;;;15.41
66170;BMP280;66757;44.024;20.456;2023-12-04T12:15:23;98612.84;;;16.21
66170;BMP280;66757;44.024;20.456;2023-12-04T12:17:49;98607.59;;;15.05
66170;BMP280;66757;44.024;20.456;2023-12-04T12:20:16;98610.53;;;14.78
66170;BMP280;66757;44.024;20.456;2023-12-04T12:22:41;98614.03;;;14.87
66170;BMP280;66757;44.024;20.456;2023-12-04T12:25:10;98600.31;;;15.23
66170;BMP280;66757;44.024;20.456;2023-12-04T12:27:38;98593.06;;;15.41
66170;BMP280;66757;44.024;20.456;2023-12-04T12:30:04;98586.22;;;14.88
66170;BMP280;66757;44.024;20.456;2023-12-04T12:32:36;98586.78;;;14.11
66170;BMP280;66757;44.024;20.456;2023-12-04T12:35:02;98581.78;;;15.90
66170;BMP280;66757;44.024;20.456;2023-12-04T12:37:28;98578.28;;;13.69
66170;BMP280;66757;44.024;20.456;2023-12-04T12:39:57;98575.78;;;12.42
66170;BMP280;66757;44.024;20.456;2023-12-04T12:42:25;98552.97;;;15.49
66170;BMP280;66757;44.024;20.456;2023-12-04T12:44:52;98558.81;;;15.25
66170;BMP280;66757;44.024;20.456;2023-12-04T12:47:18;98559.91;;;13.99
66170;BMP280;66757;44.024;20.456;2023-12-04T12:49:44;98553.34;;;12.49
66170;BMP280;66757;44.024;20.456;2023-12-04T12:52:10;98543.25;;;11.26
66170;BMP280;66757;44.024;20.456;2023-12-04T12:54:40;98540.09;;;11.61
66170;BMP280;66757;44.024;20.456;2023-12-04T12:57:06;98546.13;;;11.94
66170;BMP280;66757;44.024;20.456;2023-12-04T12:59:33;98539.41;;;11.37
66170;BMP280;66757;44.024;20.456;2023-12-04T13:01:59;98554.88;;;11.81
66170;BMP280;66757;44.024;20.456;2023-12-04T13:04:44;98547.22;;;12.48
66170;BMP280;66757;44.024;20.456;2023-12-04T13:07:10;98532.63;;;11.26
66170;BMP280;66757;44.024;20.456;2023-12-04T13:09:36;98539.00;;;11.30
66170;BMP280;66757;44.024;20.456;2023-12-04T13:12:03;98531.59;;;10.89
66170;BMP280;66757;44.024;20.456;2023-12-04T13:14:30;98539.75;;;12.09
66170;BMP280;66757;44.024;20.456;2023-12-04T13:16:56;98541.31;;;12.10
66170;BMP280;66757;44.024;20.456;2023-12-04T13:19:24;98532.75;;;12.76
66170;BMP280;66757;44.024;20.456;2023-12-04T13:21:50;98529.06;;;12.64
66170;BMP280;66757;44.024;20.456;2023-12-04T13:24:19;98533.47;;;13.04
66170;BMP280;66757;44.024;20.456;2023-12-04T13:26:45;98526.03;;;12.93
66170;BMP280;66757;44.024;20.456;2023-12-04T13:29:11;98536.03;;;13.32
66170;BMP280;66757;44.024;20.456;2023-12-04T13:31:37;98524.66;;;12.32
66170;BMP280;66757;44.024;20.456;2023-12-04T13:34:02;98517.50;;;13.04
66170;BMP280;66757;44.024;20.456;2023-12-04T13:36:33;98505.19;;;12.09
66170;BMP280;66757;44.024;20.456;2023-12-04T13:38:59;98499.59;;;13.19
66170;BMP280;66757;44.024;20.456;2023-12-04T13:41:25;98502.34;;;13.58
66170;BMP280;66757;44.024;20.456;2023-12-04T13:44:10;98500.22;;;12.93
66170;BMP280;66757;44.024;20.456;2023-12-04T13:46:38;98497.00;;;11.92
66170;BMP280;66757;44.024;20.456;2023-12-04T13:49:04;98504.41;;;10.60
66170;BMP280;66757;44.024;20.456;2023-12-04T13:51:29;98489.03;;;10.14
66170;BMP280;66757;44.024;20.456;2023-12-04T13:53:56;98490.28;;;9.69
66170;BMP280;66757;44.024;20.456;2023-12-04T13:56:27;98484.13;;;8.62
66170;BMP280;66757;44.024;20.456;2023-12-04T13:59:09;98476.47;;;7.75
66170;BMP280;66757;44.024;20.456;2023-12-04T14:01:43;98479.91;;;7.55
66170;BMP280;66757;44.024;20.456;2023-12-04T14:04:09;98477.22;;;7.71
66170;BMP280;66757;44.024;20.456;2023-12-04T14:06:34;98469.34;;;7.55
66170;BMP280;66757;44.024;20.456;2023-12-04T14:09:00;98471.47;;;7.58
66170;BMP280;66757;44.024;20.456;2023-12-04T14:11:25;98469.06;;;7.37